createdAt,value
2019-05-07T00:01:54.800Z,101466.00
2019-05-07T00:04:23.018Z,101468.27
2019-05-07T00:06:53.056Z,101465.06
2019-05-07T00:09:23.506Z,101465.81
2019-05-07T00:11:53.663Z,101464.30
2019-05-07T00:14:25.145Z,101457.34
2019-05-07T00:16:55.381Z,101453.11
2019-05-07T00:19:25.327Z,101453.02
2019-05-07T00:21:55.293Z,101448.48
2019-05-07T00:24:25.237Z,101447.98
2019-05-07T00:26:55.143Z,101449.58
2019-05-07T00:29:25.153Z,101451.75
2019-05-07T00:31:55.029Z,101446.38
2019-05-07T00:34:29.668Z,101446.75
2019-05-07T00:37:07.907Z,101442.42
2019-05-07T00:39:55.773Z,101440.63
2019-05-07T00:42:44.905Z,101442.05
2019-05-07T00:45:23.888Z,101445.72
2019-05-07T00:47:53.878Z,101443.09
2019-05-07T00:50:28.950Z,101446.09
2019-05-07T00:52:58.810Z,101450.52
2019-05-07T00:55:28.680Z,101442.72
2019-05-07T00:57:58.831Z,101445.25
2019-05-07T01:00:28.962Z,101440.92
2019-05-07T01:02:59.056Z,101444.78
2019-05-07T01:05:28.842Z,101444.31
2019-05-07T01:07:58.785Z,101449.02
2019-05-07T01:10:29.567Z,101452.96
2019-05-07T01:12:59.490Z,101452.96
2019-05-07T01:15:32.175Z,101446.75
2019-05-07T01:18:02.838Z,101440.53
2019-05-07T01:20:33.098Z,101437.53
2019-05-07T01:23:03.052Z,101435.27
2019-05-07T01:25:33.039Z,101440.91
2019-05-07T01:28:02.932Z,101436.11
2019-05-07T01:30:32.798Z,101431.88
2019-05-07T01:33:16.341Z,101437.25
2019-05-07T01:36:04.631Z,101432.08
2019-05-07T01:38:34.735Z,101435.66
2019-05-07T01:41:04.687Z,101434.47
2019-05-07T01:43:34.622Z,101431.45
2019-05-07T01:46:04.563Z,101431.93
2019-05-07T01:48:34.797Z,101430.23
2019-05-07T01:51:05.085Z,101429.86
2019-05-07T01:53:35.014Z,101430.43
2019-05-07T01:56:05.317Z,101428.17
2019-05-07T01:58:35.250Z,101432.12
2019-05-07T02:01:05.281Z,101429.11
2019-05-07T02:03:53.934Z,101437.02
2019-05-07T02:06:58.244Z,101438.81
2019-05-07T02:09:37.509Z,101435.80
2019-05-07T02:12:18.955Z,101436.27
2019-05-07T02:14:49.243Z,101434.02
2019-05-07T02:17:19.128Z,101429.31
2019-05-07T02:19:49.654Z,101428.94
2019-05-07T02:22:22.547Z,101429.41
2019-05-07T02:24:52.536Z,101429.60
2019-05-07T02:27:22.863Z,101427.81
2019-05-07T02:29:53.076Z,101431.39
2019-05-07T02:32:24.135Z,101434.40
2019-05-07T02:34:54.743Z,101432.70
2019-05-07T02:37:47.154Z,101428.19
2019-05-07T02:40:17.097Z,101428.75
2019-05-07T02:42:47.421Z,101422.30
2019-05-07T02:45:36.355Z,101423.71
2019-05-07T02:48:06.398Z,101423.71
2019-05-07T02:50:43.737Z,101426.91
2019-05-07T02:53:33.753Z,101429.17
2019-05-07T02:56:04.295Z,101428.70
2019-05-07T02:58:34.151Z,101429.55
2019-05-07T03:01:05.080Z,101425.12
2019-05-07T03:03:35.611Z,101429.08
2019-05-07T03:06:05.543Z,101418.06
2019-05-07T03:08:35.431Z,101422.86
2019-05-07T03:11:05.358Z,101424.18
2019-05-07T03:13:35.320Z,101416.28
2019-05-07T03:16:05.344Z,101424.66
2019-05-07T03:18:35.292Z,101423.71
2019-05-07T03:21:14.022Z,101420.23
2019-05-07T03:24:06.301Z,101420.80
2019-05-07T03:26:43.330Z,101420.05
2019-05-07T03:29:17.068Z,101418.36
2019-05-07T03:32:05.930Z,101417.13
2019-05-07T03:34:57.714Z,101418.45
2019-05-07T03:37:31.937Z,101414.41
2019-05-07T03:39:59.126Z,101417.89
2019-05-07T03:42:33.645Z,101421.13
2019-05-07T03:45:23.595Z,101416.43
2019-05-07T03:48:09.191Z,101411.53
2019-05-07T03:50:39.459Z,101412.57
2019-05-07T03:53:09.631Z,101415.67
2019-05-07T03:55:39.579Z,101418.31
2019-05-07T03:58:09.512Z,101420.00
2019-05-07T04:00:39.445Z,101414.36
2019-05-07T04:03:09.383Z,101413.14
2019-05-07T04:05:39.614Z,101416.62
2019-05-07T04:08:12.876Z,101419.25
2019-05-07T04:10:44.206Z,101420.20
2019-05-07T04:13:13.814Z,101417.66
2019-05-07T04:15:44.336Z,101411.55
2019-05-07T04:18:14.389Z,101420.67
2019-05-07T04:20:44.258Z,101418.78
2019-05-07T04:23:14.362Z,101424.05
2019-05-07T04:25:59.002Z,101423.95
2019-05-07T04:29:05.581Z,101416.05
2019-05-07T04:31:43.492Z,101419.53
2019-05-07T04:34:23.833Z,101418.12
2019-05-07T04:36:53.568Z,101415.86
2019-05-07T04:39:23.675Z,101416.95
2019-05-07T04:41:53.494Z,101411.69
2019-05-07T04:44:23.826Z,101414.70
2019-05-07T04:46:53.829Z,101414.97
2019-05-07T04:49:24.090Z,101409.23
2019-05-07T04:52:15.274Z,101416.94
2019-05-07T04:54:44.661Z,101417.31
2019-05-07T04:57:26.888Z,101411.11
2019-05-07T04:59:58.186Z,101411.85
2019-05-07T05:02:36.680Z,101404.70
2019-05-07T05:05:06.628Z,101409.37
2019-05-07T05:07:36.904Z,101407.48
2019-05-07T05:10:07.289Z,101404.28
2019-05-07T05:12:37.223Z,101411.52
2019-05-07T05:15:07.677Z,101413.48
2019-05-07T05:17:48.062Z,101409.30
2019-05-07T05:20:09.927Z,101411.27
2019-05-07T05:23:02.841Z,101409.66
2019-05-07T05:25:37.852Z,101409.66
2019-05-07T05:28:07.768Z,101407.56
2019-05-07T05:30:46.994Z,101414.88
2019-05-07T05:33:16.937Z,101418.62
2019-05-07T05:35:46.804Z,101416.73
2019-05-07T05:38:16.913Z,101410.89
2019-05-07T05:40:46.852Z,101414.28
2019-05-07T05:43:38.756Z,101413.73
2019-05-07T05:46:08.708Z,101418.44
2019-05-07T05:48:38.571Z,101421.21
2019-05-07T05:51:27.739Z,101417.16
2019-05-07T05:54:02.005Z,101423.65
2019-05-07T05:56:38.780Z,101415.73
2019-05-07T05:59:43.564Z,101415.16
2019-05-07T06:02:18.107Z,101409.31
2019-05-07T06:04:58.510Z,101403.47
2019-05-07T06:07:33.895Z,101409.86
2019-05-07T06:10:13.006Z,101404.11
2019-05-07T06:13:05.127Z,101408.17
2019-05-07T06:15:58.963Z,101404.92
2019-05-07T06:18:48.601Z,101400.87
2019-05-07T06:21:27.836Z,101401.23
2019-05-07T06:24:02.147Z,101407.63
2019-05-07T06:26:31.983Z,101414.13
2019-05-07T06:29:02.938Z,101416.19
2019-05-07T06:31:32.864Z,101411.28
2019-05-07T06:34:02.682Z,101413.55
2019-05-07T06:36:34.279Z,101412.87
2019-05-07T06:39:14.906Z,101413.48
2019-05-07T06:42:22.406Z,101414.12
2019-05-07T06:45:06.188Z,101410.80
2019-05-07T06:47:36.517Z,101417.56
2019-05-07T06:50:06.633Z,101413.98
2019-05-07T06:52:36.585Z,101408.46
2019-05-07T06:55:06.514Z,101409.58
2019-05-07T06:57:38.006Z,101409.02
2019-05-07T07:00:27.273Z,101409.17
2019-05-07T07:03:02.740Z,101409.86
2019-05-07T07:05:51.874Z,101408.09
2019-05-07T07:08:27.453Z,101406.20
2019-05-07T07:11:05.498Z,101403.62
2019-05-07T07:13:35.759Z,101395.59
2019-05-07T07:16:06.110Z,101397.45
2019-05-07T07:18:48.615Z,101401.53
2019-05-07T07:21:07.723Z,101397.37
2019-05-07T07:23:37.665Z,101386.50
2019-05-07T07:26:07.605Z,101386.66
2019-05-07T07:28:37.844Z,101383.50
2019-05-07T07:31:22.248Z,101388.94
2019-05-07T07:33:52.633Z,101390.27
2019-05-07T07:36:25.950Z,101386.41
2019-05-07T07:38:55.822Z,101386.20
2019-05-07T07:41:34.126Z,101387.52
2019-05-07T07:44:05.563Z,101381.92
2019-05-07T07:46:37.673Z,101380.02
2019-05-07T07:49:11.371Z,101380.14
2019-05-07T07:51:44.518Z,101371.57
2019-05-07T07:54:12.987Z,101374.16
2019-05-07T07:56:53.009Z,101376.18
2019-05-07T07:59:32.948Z,101378.50
2019-05-07T08:02:12.404Z,101373.37
2019-05-07T08:04:42.676Z,101370.73
2019-05-07T08:07:12.676Z,101368.47
2019-05-07T08:09:42.958Z,101365.45
2019-05-07T08:12:14.876Z,101368.09
2019-05-07T08:14:44.814Z,101370.89
2019-05-07T08:17:15.479Z,101368.98
2019-05-07T08:19:45.442Z,101367.67
2019-05-07T08:22:15.370Z,101368.77
2019-05-07T08:24:45.439Z,101367.89
2019-05-07T08:27:15.623Z,101368.56
2019-05-07T08:29:46.006Z,101367.98
2019-05-07T08:32:42.576Z,101364.29
2019-05-07T08:35:35.368Z,101363.34
2019-05-07T08:38:05.515Z,101361.95
2019-05-07T08:40:35.469Z,101357.30
2019-05-07T08:43:05.886Z,101355.06
2019-05-07T08:46:07.057Z,101354.11
2019-05-07T08:48:42.471Z,101354.29
2019-05-07T08:51:13.426Z,101350.58
2019-05-07T08:53:43.371Z,101350.36
2019-05-07T08:56:13.323Z,101348.64
2019-05-07T08:58:44.038Z,101346.91
2019-05-07T09:01:14.322Z,101347.42
2019-05-07T09:03:44.610Z,101346.76
2019-05-07T09:06:17.293Z,101343.23
2019-05-07T09:08:47.225Z,101340.45
2019-05-07T09:11:17.375Z,101332.72
2019-05-07T09:13:47.331Z,101338.98
2019-05-07T09:16:17.568Z,101336.93
2019-05-07T09:18:48.161Z,101335.28
2019-05-07T09:21:18.390Z,101338.35
2019-05-07T09:23:48.336Z,101325.39
2019-05-07T09:26:22.106Z,101328.53
2019-05-07T09:29:02.660Z,101320.70
2019-05-07T09:31:57.948Z,101321.94
2019-05-07T09:34:29.757Z,101320.88
2019-05-07T09:37:02.377Z,101324.46
2019-05-07T09:39:32.567Z,101319.17
2019-05-07T09:42:02.728Z,101318.81
2019-05-07T09:44:32.692Z,101315.11
2019-05-07T09:47:02.830Z,101310.39
2019-05-07T09:49:32.799Z,101304.16
2019-05-07T09:52:06.007Z,101301.87
2019-05-07T09:54:35.423Z,101300.07
2019-05-07T09:57:05.657Z,101297.55
2019-05-07T09:59:35.934Z,101305.71
2019-05-07T10:02:06.173Z,101300.30
2019-05-07T10:04:36.225Z,101302.19
2019-05-07T10:07:06.357Z,101298.95
2019-05-07T10:09:37.016Z,101304.37
2019-05-07T10:12:16.206Z,101296.70
2019-05-07T10:14:46.141Z,101300.52
2019-05-07T10:17:25.182Z,101297.38
2019-05-07T10:19:55.459Z,101291.98
2019-05-07T10:22:25.448Z,101295.58
2019-05-07T10:24:55.710Z,101295.47
2019-05-07T10:27:25.641Z,101291.16
2019-05-07T10:29:55.601Z,101292.25
2019-05-07T10:32:26.446Z,101289.12
2019-05-07T10:34:56.392Z,101292.38
2019-05-07T10:37:26.425Z,101291.19
2019-05-07T10:39:56.372Z,101295.14
2019-05-07T10:42:26.288Z,101291.20
2019-05-07T10:45:04.798Z,101285.20
2019-05-07T10:47:48.356Z,101284.22
2019-05-07T10:50:35.390Z,101278.10
2019-05-07T10:52:55.511Z,101274.14
2019-05-07T10:55:25.474Z,101272.91
2019-05-07T10:57:55.472Z,101269.08
2019-05-07T11:00:26.515Z,101266.64
2019-05-07T11:02:56.517Z,101260.03
2019-05-07T11:05:26.473Z,101262.08
2019-05-07T11:07:56.404Z,101261.81
2019-05-07T11:10:26.362Z,101254.72
2019-05-07T11:12:56.219Z,101260.86
2019-05-07T11:15:26.535Z,101257.69
2019-05-07T11:18:18.569Z,101257.94
2019-05-07T11:20:50.463Z,101249.27
2019-05-07T11:23:22.330Z,101248.78
2019-05-07T11:25:53.014Z,101248.06
2019-05-07T11:28:22.954Z,101239.76
2019-05-07T11:30:52.765Z,101240.23
2019-05-07T11:33:23.020Z,101235.31
2019-05-07T11:35:53.589Z,101232.34
2019-05-07T11:38:25.029Z,101233.91
2019-05-07T11:40:55.153Z,101226.59
2019-05-07T11:43:43.928Z,101225.88
2019-05-07T11:46:22.201Z,101224.07
2019-05-07T11:48:57.466Z,101219.38
2019-05-07T11:51:42.632Z,101220.94
2019-05-07T11:54:15.905Z,101225.88
2019-05-07T11:56:45.858Z,101214.69
2019-05-07T11:59:16.129Z,101212.03
2019-05-07T12:01:49.498Z,101216.48
2019-05-07T12:04:19.443Z,101216.25
2019-05-07T12:06:49.427Z,101215.53
2019-05-07T12:09:19.357Z,101215.16
2019-05-07T12:11:49.364Z,101210.02
2019-05-07T12:14:28.944Z,101209.06
2019-05-07T12:16:50.745Z,101209.66
2019-05-07T12:19:22.604Z,101207.49
2019-05-07T12:21:52.813Z,101203.52
2019-05-07T12:24:22.712Z,101199.92
2019-05-07T12:26:52.664Z,101195.95
2019-05-07T12:29:22.621Z,101198.11
2019-05-07T12:32:14.652Z,101194.02
2019-05-07T12:34:57.267Z,101191.62
2019-05-07T12:37:27.798Z,101185.25
2019-05-07T12:39:57.658Z,101185.33
2019-05-07T12:42:27.536Z,101181.48
2019-05-07T12:44:57.476Z,101182.56
2019-05-07T12:47:27.340Z,101183.52
2019-05-07T12:49:57.285Z,101173.86
2019-05-07T12:52:32.884Z,101181.80
2019-05-07T12:55:18.508Z,101173.84
2019-05-07T12:57:48.393Z,101166.58
2019-05-07T13:00:37.016Z,101166.04
2019-05-07T13:03:12.819Z,101166.27
2019-05-07T13:05:42.762Z,101162.14
2019-05-07T13:08:12.709Z,101155.86
2019-05-07T13:10:42.924Z,101162.36
2019-05-07T13:13:13.184Z,101154.18
2019-05-07T13:15:43.451Z,101149.37
2019-05-07T13:18:13.337Z,101161.53
2019-05-07T13:20:43.462Z,101157.19
2019-05-07T13:23:13.397Z,101142.56
2019-05-07T13:25:43.316Z,101150.47
2019-05-07T13:28:13.635Z,101143.40
2019-05-07T13:30:43.981Z,101140.30
2019-05-07T13:33:16.901Z,101139.41
2019-05-07T13:35:48.810Z,101139.08
2019-05-07T13:38:37.186Z,101139.66
2019-05-07T13:41:26.112Z,101133.73
2019-05-07T13:44:03.084Z,101133.92
2019-05-07T13:46:34.213Z,101125.00
2019-05-07T13:49:04.421Z,101123.98
2019-05-07T13:51:35.857Z,101116.95
2019-05-07T13:54:06.214Z,101115.14
2019-05-07T13:56:36.441Z,101122.48
2019-05-07T13:59:06.380Z,101117.44
2019-05-07T14:01:42.666Z,101112.13
2019-05-07T14:04:13.060Z,101108.14
2019-05-07T14:06:43.989Z,101106.95
2019-05-07T14:09:18.404Z,101100.53
2019-05-07T14:11:48.465Z,101100.05
2019-05-07T14:14:18.424Z,101096.21
2019-05-07T14:16:48.736Z,101093.78
2019-05-07T14:19:18.669Z,101093.91
2019-05-07T14:21:48.534Z,101083.06
2019-05-07T14:24:18.464Z,101087.38
2019-05-07T14:26:48.406Z,101086.89
2019-05-07T14:29:18.394Z,101075.59
2019-05-07T14:31:53.853Z,101072.09
2019-05-07T14:34:28.432Z,101079.44
2019-05-07T14:37:13.930Z,101070.78
2019-05-07T14:39:44.495Z,101075.69
2019-05-07T14:42:19.396Z,101081.70
2019-05-07T14:44:50.117Z,101074.77
2019-05-07T14:47:22.469Z,101066.23
2019-05-07T14:49:53.147Z,101065.48
2019-05-07T14:52:32.111Z,101067.70
2019-05-07T14:54:57.633Z,101063.56
2019-05-07T14:57:27.932Z,101060.73
2019-05-07T14:59:58.017Z,101057.64
2019-05-07T15:02:28.534Z,101057.56
2019-05-07T15:04:58.848Z,101051.23
2019-05-07T15:07:29.158Z,101046.28
2019-05-07T15:09:59.523Z,101043.95
2019-05-07T15:12:29.704Z,101046.94
2019-05-07T15:15:02.032Z,101042.52
2019-05-07T15:17:41.966Z,101040.00
2019-05-07T15:20:13.117Z,101038.41
2019-05-07T15:22:56.021Z,101037.70
2019-05-07T15:25:26.268Z,101018.87
2019-05-07T15:27:56.558Z,101022.63
2019-05-07T15:30:28.720Z,101021.39
2019-05-07T15:32:59.076Z,101012.64
2019-05-07T15:35:29.033Z,101016.44
2019-05-07T15:37:59.327Z,101012.28
2019-05-07T15:40:29.609Z,101012.81
2019-05-07T15:43:02.152Z,101008.65
2019-05-07T15:45:31.979Z,101001.53
2019-05-07T15:48:02.466Z,101000.47
2019-05-07T15:50:32.898Z,100995.38
2019-05-07T15:53:15.736Z,100990.16
2019-05-07T15:55:46.778Z,100987.20
2019-05-07T15:58:17.094Z,100983.70
2019-05-07T16:00:47.021Z,100979.95
2019-05-07T16:03:25.266Z,100980.66
2019-05-07T16:05:55.416Z,100976.89
2019-05-07T16:08:27.010Z,100969.95
2019-05-07T16:10:56.932Z,100960.88
2019-05-07T16:13:30.141Z,100961.58
2019-05-07T16:16:02.205Z,100965.15
2019-05-07T16:18:37.242Z,100959.70
2019-05-07T16:21:07.226Z,100957.27
2019-05-07T16:23:37.370Z,100959.79
2019-05-07T16:26:07.220Z,100952.36
2019-05-07T16:28:36.999Z,100954.34
2019-05-07T16:31:06.953Z,100949.98
2019-05-07T16:33:37.126Z,100951.47
2019-05-07T16:36:07.334Z,100949.98
2019-05-07T16:38:37.270Z,100943.39
2019-05-07T16:41:07.197Z,100943.05
2019-05-07T16:43:37.254Z,100936.34
2019-05-07T16:46:07.043Z,100932.98
2019-05-07T16:48:36.906Z,100932.61
2019-05-07T16:51:07.068Z,100926.05
2019-05-07T16:53:36.994Z,100923.56
2019-05-07T16:56:06.939Z,100927.13
2019-05-07T16:58:47.081Z,100918.16
2019-05-07T17:01:17.363Z,100922.94
2019-05-07T17:03:52.108Z,100925.55
2019-05-07T17:06:25.049Z,100919.69
2019-05-07T17:09:10.563Z,100915.14
2019-05-07T17:11:40.512Z,100912.48
2019-05-07T17:14:10.375Z,100916.95
2019-05-07T17:16:40.937Z,100912.48
2019-05-07T17:19:13.100Z,100918.77
2019-05-07T17:21:43.241Z,100911.79
2019-05-07T17:24:13.170Z,100908.78
2019-05-07T17:26:43.137Z,100905.43
2019-05-07T17:29:13.387Z,100904.11
2019-05-07T17:31:43.240Z,100904.77
2019-05-07T17:34:13.409Z,100906.58
2019-05-07T17:36:43.630Z,100909.78
2019-05-07T17:39:13.805Z,100908.45
2019-05-07T17:41:43.657Z,100908.94
2019-05-07T17:44:13.638Z,100905.59
2019-05-07T17:46:46.132Z,100904.75
2019-05-07T17:49:15.607Z,100902.23
2019-05-07T17:51:45.832Z,100903.35
2019-05-07T17:54:15.902Z,100903.66
2019-05-07T17:56:45.911Z,100896.67
2019-05-07T17:59:15.758Z,100892.34
2019-05-07T18:02:04.679Z,100893.45
2019-05-07T18:04:50.030Z,100890.10
2019-05-07T18:07:08.725Z,100891.98
2019-05-07T18:09:38.714Z,100890.66
2019-05-07T18:12:08.659Z,100888.30
2019-05-07T18:14:38.904Z,100887.11
2019-05-07T18:17:18.617Z,100883.19
2019-05-07T18:19:49.610Z,100884.17
2019-05-07T18:22:19.621Z,100883.28
2019-05-07T18:24:49.468Z,100883.28
2019-05-07T18:27:26.147Z,100879.30
2019-05-07T18:29:56.015Z,100879.44
2019-05-07T18:32:32.438Z,100884.75
2019-05-07T18:35:02.502Z,100880.41
2019-05-07T18:37:32.682Z,100880.47
2019-05-07T18:40:02.720Z,100880.95
2019-05-07T18:42:32.843Z,100875.30
2019-05-07T18:45:04.306Z,100870.63
2019-05-07T18:47:34.262Z,100870.27
2019-05-07T18:50:04.242Z,100866.92
2019-05-07T18:52:34.716Z,100864.57
2019-05-07T18:55:04.969Z,100862.89
2019-05-07T18:57:34.891Z,100871.11
2019-05-07T19:00:06.612Z,100864.41
2019-05-07T19:02:37.707Z,100861.67
2019-05-07T19:05:08.067Z,100861.27
2019-05-07T19:07:38.296Z,100859.73
2019-05-07T19:10:08.624Z,100860.48
2019-05-07T19:12:38.968Z,100863.69
2019-05-07T19:15:08.996Z,100863.83
2019-05-07T19:17:38.987Z,100869.52
2019-05-07T19:20:08.934Z,100866.79
2019-05-07T19:22:38.861Z,100870.19
2019-05-07T19:25:09.127Z,100870.80
2019-05-07T19:27:39.356Z,100870.23
2019-05-07T19:30:12.591Z,100869.52
2019-05-07T19:32:42.784Z,100869.30
2019-05-07T19:35:12.903Z,100870.05
2019-05-07T19:37:43.125Z,100865.40
2019-05-07T19:40:13.158Z,100869.50
2019-05-07T19:42:42.955Z,100865.66
2019-05-07T19:45:13.382Z,100868.92
2019-05-07T19:47:43.314Z,100867.25
2019-05-07T19:50:13.535Z,100868.83
2019-05-07T19:52:43.378Z,100863.67
2019-05-07T19:55:13.314Z,100859.83
2019-05-07T19:57:52.113Z,100855.02
2019-05-07T20:00:23.920Z,100855.63
2019-05-07T20:02:55.652Z,100852.79
2019-05-07T20:05:25.538Z,100844.63
2019-05-07T20:07:59.580Z,100855.13
2019-05-07T20:10:45.432Z,100859.97
2019-05-07T20:13:15.805Z,100857.73
2019-05-07T20:15:52.072Z,100855.25
2019-05-07T20:18:23.028Z,100847.86
2019-05-07T20:20:52.891Z,100849.22
2019-05-07T20:23:22.884Z,100843.47
2019-05-07T20:25:53.777Z,100847.69
2019-05-07T20:28:23.886Z,100847.98
2019-05-07T20:30:56.308Z,100850.05
2019-05-07T20:33:25.306Z,100842.36
2019-05-07T20:35:55.423Z,100835.03
2019-05-07T20:38:25.806Z,100824.10
2019-05-07T20:40:55.811Z,100823.39
2019-05-07T20:43:25.735Z,100817.06
2019-05-07T20:45:55.581Z,100813.71
2019-05-07T20:48:25.521Z,100809.03
2019-05-07T20:50:55.800Z,100804.35
2019-05-07T20:53:43.258Z,100798.70
2019-05-07T20:56:14.089Z,100786.58
2019-05-07T20:58:44.026Z,100784.34
2019-05-07T21:01:14.199Z,100776.19
2019-05-07T21:03:44.322Z,100774.28
2019-05-07T21:06:14.262Z,100777.18
2019-05-07T21:08:44.113Z,100768.30
2019-05-07T21:11:14.040Z,100773.04
2019-05-07T21:13:44.579Z,100768.01
2019-05-07T21:16:14.638Z,100773.91
2019-05-07T21:18:44.492Z,100770.19
2019-05-07T21:21:14.440Z,100770.12
2019-05-07T21:23:44.295Z,100765.17
2019-05-07T21:26:14.253Z,100764.82
2019-05-07T21:28:44.484Z,100761.11
2019-05-07T21:31:14.351Z,100761.36
2019-05-07T21:33:44.616Z,100758.72
2019-05-07T21:36:14.482Z,100760.52
2019-05-07T21:38:44.650Z,100759.68
2019-05-07T21:41:14.601Z,100752.23
2019-05-07T21:43:46.201Z,100751.87
2019-05-07T21:46:16.166Z,100753.43
2019-05-07T21:48:46.092Z,100746.34
2019-05-07T21:51:16.023Z,100744.05
2019-05-07T21:54:03.517Z,100747.18
2019-05-07T21:56:40.518Z,100740.58
2019-05-07T21:59:14.003Z,100733.13
2019-05-07T22:01:49.692Z,100730.36
2019-05-07T22:04:19.841Z,100735.52
2019-05-07T22:06:52.178Z,100727.23
2019-05-07T22:09:22.367Z,100725.92
2019-05-07T22:11:53.795Z,100722.92
2019-05-07T22:14:23.774Z,100718.95
2019-05-07T22:16:54.615Z,100711.87
2019-05-07T22:19:24.752Z,100712.34
2019-05-07T22:21:55.282Z,100708.52
2019-05-07T22:24:25.068Z,100700.72
2019-05-07T22:26:55.697Z,100693.75
2019-05-07T22:29:25.948Z,100702.64
2019-05-07T22:32:13.553Z,100697.87
2019-05-07T22:34:57.232Z,100690.75
2019-05-07T22:37:28.790Z,100679.70
2019-05-07T22:40:12.592Z,100680.19
2019-05-07T22:42:44.465Z,100682.83
2019-05-07T22:45:14.696Z,100665.66
2019-05-07T22:47:44.702Z,100660.37
2019-05-07T22:50:14.929Z,100663.02
2019-05-07T22:52:45.347Z,100667.48
2019-05-07T22:55:15.398Z,100661.37
2019-05-07T22:57:56.687Z,100656.09
2019-05-07T23:00:32.204Z,100656.92
2019-05-07T23:03:02.776Z,100645.16
2019-05-07T23:05:32.864Z,100640.00
2019-05-07T23:08:02.829Z,100636.40
2019-05-07T23:10:33.375Z,100639.52
2019-05-07T23:13:03.233Z,100627.77
2019-05-07T23:15:33.156Z,100623.22
2019-05-07T23:18:04.451Z,100620.83
2019-05-07T23:20:34.329Z,100619.41
2019-05-07T23:23:04.186Z,100617.77
2019-05-07T23:25:34.471Z,100613.93
2019-05-07T23:28:05.380Z,100606.75
2019-05-07T23:30:36.582Z,100604.11
2019-05-07T23:33:06.522Z,100599.44
2019-05-07T23:35:36.461Z,100592.95
2019-05-07T23:38:06.400Z,100586.54
2019-05-07T23:40:44.514Z,100582.35
2019-05-07T23:43:14.902Z,100581.03
2019-05-07T23:45:44.819Z,100576.23
2019-05-07T23:48:15.065Z,100572.53
2019-05-07T23:50:45.209Z,100565.09
2019-05-07T23:53:15.454Z,100565.92
2019-05-07T23:55:45.315Z,100564.12
2019-05-07T23:58:15.170Z,100555.49
